createdAt,value
2022-09-05T00:02:17.814Z,1.27
2022-09-05T00:05:23.554Z,1.00
2022-09-05T00:08:30.446Z,1.20
2022-09-05T00:11:42.899Z,1.30
2022-09-05T00:15:15.833Z,1.10
2022-09-05T00:23:17.594Z,1.20
2022-09-05T00:24:37.608Z,1.30
2022-09-05T00:28:35.945Z,1.50
2022-09-05T00:31:54.275Z,1.30
2022-09-05T00:35:06.766Z,1.00
2022-09-05T00:38:12.574Z,1.10
2022-09-05T00:41:20.713Z,1.20
2022-09-05T00:44:28.852Z,1.20
2022-09-05T00:47:34.741Z,1.30
2022-09-05T00:50:40.858Z,1.10
2022-09-05T00:53:46.608Z,1.33
2022-09-05T00:57:05.009Z,1.40
2022-09-05T01:00:17.089Z,1.13
2022-09-05T01:03:25.002Z,1.10
2022-09-05T01:06:30.922Z,1.40
2022-09-05T01:09:37.379Z,1.60
2022-09-05T01:12:52.905Z,1.50
2022-09-05T01:16:19.622Z,1.30
2022-09-05T01:19:26.446Z,1.20
2022-09-05T01:22:33.905Z,1.33
2022-09-05T01:25:47.133Z,1.20
2022-09-05T01:29:17.164Z,1.67
2022-09-05T01:32:26.122Z,1.30
2022-09-05T01:35:32.507Z,1.20
2022-09-05T01:38:38.590Z,1.67
2022-09-05T01:41:48.541Z,1.50
2022-09-05T01:44:57.058Z,1.73
2022-09-05T01:48:03.246Z,1.30
2022-09-05T01:51:29.217Z,1.50
2022-09-05T01:54:37.157Z,1.67
2022-09-05T01:57:43.707Z,1.70
2022-09-05T02:00:49.784Z,2.03
2022-09-05T02:03:58.080Z,1.30
2022-09-05T02:10:37.703Z,1.40
2022-09-05T02:13:43.583Z,1.30
2022-09-05T02:16:53.984Z,1.60
2022-09-05T02:19:59.956Z,1.40
2022-09-05T02:23:40.178Z,1.60
2022-09-05T02:26:31.851Z,1.37
2022-09-05T02:29:37.911Z,1.40
2022-09-05T02:32:45.743Z,1.47
2022-09-05T02:35:52.228Z,1.40
2022-09-05T02:43:51.879Z,1.30
2022-09-05T02:45:21.086Z,1.57
2022-09-05T02:46:09.484Z,1.70
2022-09-05T02:50:14.157Z,1.33
2022-09-05T02:57:40.449Z,1.30
2022-09-05T02:57:41.359Z,1.30
2022-09-05T02:59:36.860Z,1.43
2022-09-05T03:02:42.417Z,1.60
2022-09-05T03:05:48.385Z,1.40
2022-09-05T03:08:55.903Z,1.53
2022-09-05T03:12:18.997Z,1.40
2022-09-05T03:15:31.050Z,1.40
2022-09-05T03:18:36.942Z,1.43
2022-09-05T03:21:43.487Z,1.40
2022-09-05T03:24:55.827Z,1.53
2022-09-05T03:28:04.535Z,1.87
2022-09-05T03:31:22.069Z,1.77
2022-09-05T03:34:28.985Z,1.83
2022-09-05T03:37:35.305Z,1.90
2022-09-05T03:40:41.964Z,2.13
2022-09-05T03:43:47.924Z,1.70
2022-09-05T03:47:00.111Z,1.73
2022-09-05T03:53:29.409Z,1.60
2022-09-05T03:57:19.057Z,1.67
2022-09-05T03:57:25.010Z,2.00
2022-09-05T04:00:30.502Z,1.60
2022-09-05T04:07:41.458Z,2.00
2022-09-05T04:08:17.040Z,1.90
2022-09-05T04:10:29.945Z,1.80
2022-09-05T04:13:35.970Z,1.73
2022-09-05T04:16:43.214Z,1.33
2022-09-05T04:19:50.161Z,1.80
2022-09-05T04:22:57.230Z,2.60
2022-09-05T04:26:12.569Z,1.60
2022-09-05T04:29:18.858Z,1.40
2022-09-05T04:32:25.022Z,1.47
2022-09-05T04:35:33.432Z,1.63
2022-09-05T04:38:39.562Z,1.40
2022-09-05T04:41:46.192Z,1.43
2022-09-05T04:44:55.797Z,1.70
2022-09-05T04:48:07.346Z,1.90
2022-09-05T04:51:15.162Z,2.00
2022-09-05T04:54:21.509Z,1.50
2022-09-05T04:57:32.746Z,1.37
2022-09-05T05:04:23.749Z,1.30
2022-09-05T05:06:09.093Z,1.53
2022-09-05T05:07:33.359Z,1.57
2022-09-05T05:15:21.737Z,1.87
2022-09-05T05:18:00.929Z,1.50
2022-09-05T05:18:13.271Z,1.40
2022-09-05T05:21:18.284Z,1.60
2022-09-05T05:24:23.790Z,1.47
2022-09-05T05:27:33.342Z,1.43
2022-09-05T05:30:39.718Z,1.60
2022-09-05T05:33:49.532Z,1.73
2022-09-05T05:40:40.972Z,1.63
2022-09-05T05:43:56.664Z,1.77
2022-09-05T05:47:02.654Z,1.50
2022-09-05T05:50:11.530Z,1.60
2022-09-05T05:53:33.558Z,1.43
2022-09-05T05:56:43.450Z,1.67
2022-09-05T05:59:56.352Z,1.73
2022-09-05T06:03:25.978Z,3.23
2022-09-05T06:06:33.185Z,2.90
2022-09-05T06:14:51.679Z,3.40
2022-09-05T06:15:00.910Z,3.70
2022-09-05T06:16:36.396Z,4.17
2022-09-05T06:20:15.022Z,4.27
2022-09-05T06:23:10.548Z,3.37
2022-09-05T06:26:33.628Z,3.33
2022-09-05T06:29:41.070Z,2.90
2022-09-05T06:32:58.051Z,2.77
2022-09-05T06:36:07.318Z,2.83
2022-09-05T06:39:19.545Z,3.17
2022-09-05T06:42:42.713Z,3.07
2022-09-05T06:45:58.590Z,3.10
2022-09-05T06:49:32.197Z,2.30
2022-09-05T06:52:36.153Z,2.83
2022-09-05T06:55:42.462Z,2.77
2022-09-05T06:58:48.285Z,3.07
2022-09-05T07:02:01.154Z,2.73
2022-09-05T07:05:36.877Z,2.63
2022-09-05T07:08:37.160Z,2.33
2022-09-05T07:11:59.502Z,2.43
2022-09-05T07:15:08.915Z,2.30
2022-09-05T07:18:16.107Z,2.10
2022-09-05T07:21:26.801Z,2.10
2022-09-05T07:24:55.173Z,2.30
2022-09-05T07:28:29.078Z,1.80
2022-09-05T07:31:37.157Z,1.77
2022-09-05T07:34:45.154Z,2.30
2022-09-05T07:37:55.268Z,1.63
2022-09-05T07:41:05.933Z,1.90
2022-09-05T07:44:11.355Z,1.83
2022-09-05T07:47:23.591Z,1.73
2022-09-05T07:55:00.522Z,1.17
2022-09-05T07:56:59.385Z,1.40
2022-09-05T07:57:30.710Z,1.40
2022-09-05T08:00:37.326Z,1.40
2022-09-05T08:03:45.494Z,1.10
2022-09-05T08:07:47.734Z,1.17
2022-09-05T08:10:35.599Z,1.00
2022-09-05T08:14:10.466Z,1.07
2022-09-05T08:17:26.347Z,1.20
2022-09-05T08:20:37.147Z,1.10
2022-09-05T08:23:46.354Z,0.83
2022-09-05T08:26:53.543Z,1.10
2022-09-05T08:30:24.791Z,0.93
2022-09-05T08:33:36.134Z,0.93
2022-09-05T08:36:46.205Z,1.27
2022-09-05T08:39:54.246Z,1.10
2022-09-05T08:46:10.205Z,0.90
2022-09-05T08:46:49.783Z,0.97
2022-09-05T08:49:59.302Z,1.03
2022-09-05T08:53:26.813Z,1.23
2022-09-05T08:56:32.527Z,1.20
2022-09-05T08:59:38.293Z,0.90
2022-09-05T09:03:09.571Z,1.30
2022-09-05T09:06:16.215Z,1.20
2022-09-05T09:09:24.834Z,1.10
2022-09-05T09:12:32.047Z,1.13
2022-09-05T09:15:37.943Z,0.83
2022-09-05T09:18:44.977Z,1.10
2022-09-05T09:21:53.755Z,1.20
2022-09-05T09:25:15.123Z,1.40
2022-09-05T09:28:48.745Z,1.07
2022-09-05T09:31:48.226Z,1.10
2022-09-05T09:34:57.139Z,0.90
2022-09-05T09:38:05.465Z,0.80
2022-09-05T09:41:19.367Z,1.20
2022-09-05T09:44:25.145Z,1.00
2022-09-05T09:47:31.481Z,1.13
2022-09-05T09:50:38.090Z,1.27
2022-09-05T09:53:53.026Z,1.00
2022-09-05T09:57:05.676Z,1.30
2022-09-05T10:00:12.051Z,1.00
2022-09-05T10:04:31.169Z,1.20
2022-09-05T10:10:43.933Z,1.10
2022-09-05T10:10:58.711Z,1.03
2022-09-05T10:13:44.350Z,1.23
2022-09-05T10:16:53.484Z,1.00
2022-09-05T10:20:10.019Z,0.90
2022-09-05T10:23:18.522Z,0.90
2022-09-05T10:26:24.759Z,0.90
2022-09-05T10:29:36.696Z,1.20
2022-09-05T10:35:04.672Z,1.07
2022-09-05T10:36:17.459Z,0.77
2022-09-05T10:39:24.826Z,0.80
2022-09-05T10:42:30.586Z,0.90
2022-09-05T10:45:40.417Z,1.30
2022-09-05T10:48:49.927Z,0.93
2022-09-05T10:51:58.729Z,1.20
2022-09-05T10:55:26.403Z,0.90
2022-09-05T10:59:54.183Z,0.80
2022-09-05T11:02:25.981Z,1.13
2022-09-05T11:05:29.980Z,0.90
2022-09-05T11:08:40.001Z,0.80
2022-09-05T11:11:46.930Z,0.93
2022-09-05T11:14:53.581Z,1.00
2022-09-05T11:17:59.893Z,0.87
2022-09-05T11:21:08.789Z,0.93
2022-09-05T11:24:15.900Z,0.90
2022-09-05T11:27:24.708Z,0.90
2022-09-05T11:30:38.165Z,0.90
2022-09-05T11:36:11.785Z,0.60
2022-09-05T11:40:01.997Z,0.80
2022-09-05T11:40:59.135Z,1.10
2022-09-05T11:51:06.821Z,0.80
2022-09-05T11:54:16.009Z,1.03
2022-09-05T11:57:33.831Z,1.00
2022-09-05T12:00:40.829Z,0.80
2022-09-05T12:03:58.918Z,0.90
2022-09-05T12:07:31.788Z,0.87
2022-09-05T12:10:47.339Z,0.87
2022-09-05T12:15:32.716Z,1.00
2022-09-05T12:18:19.486Z,0.77
2022-09-05T12:21:18.376Z,0.70
2022-09-05T12:25:17.983Z,0.80
2022-09-05T12:29:29.053Z,0.90
2022-09-05T12:33:32.735Z,1.00
2022-09-05T12:36:13.205Z,0.90
2022-09-05T12:41:37.137Z,0.70
2022-09-05T12:44:38.903Z,1.20
2022-09-05T12:46:26.702Z,0.83
2022-09-05T12:49:35.244Z,0.90
2022-09-05T12:52:43.667Z,0.90
2022-09-05T12:57:10.988Z,0.97
2022-09-05T13:03:03.545Z,1.03
2022-09-05T13:03:35.534Z,0.80
2022-09-05T13:06:44.780Z,0.80
2022-09-05T13:12:45.248Z,0.90
2022-09-05T13:14:53.867Z,0.80
2022-09-05T13:17:00.485Z,0.70
2022-09-05T13:20:10.570Z,0.80
2022-09-05T13:23:21.275Z,0.83
2022-09-05T13:26:41.233Z,0.80
2022-09-05T13:33:22.661Z,0.80
2022-09-05T13:38:01.206Z,1.00
2022-09-05T13:38:13.583Z,0.90
2022-09-05T13:41:27.109Z,0.90
2022-09-05T13:44:41.252Z,1.13
2022-09-05T13:51:15.909Z,0.83
2022-09-05T13:54:52.553Z,0.90
2022-09-05T13:58:11.809Z,1.30
2022-09-05T14:01:26.527Z,1.07
2022-09-05T14:08:02.585Z,0.90
2022-09-05T14:11:13.192Z,0.87
2022-09-05T14:18:12.784Z,1.10
2022-09-05T14:21:27.815Z,0.80
2022-09-05T14:24:36.703Z,0.90
2022-09-05T14:36:12.308Z,0.90
2022-09-05T14:37:53.210Z,1.20
2022-09-05T14:38:14.865Z,0.73
2022-09-05T14:42:03.583Z,0.90
2022-09-05T14:45:07.736Z,0.80
2022-09-05T14:48:14.253Z,0.80
2022-09-05T14:51:29.540Z,0.90
2022-09-05T15:02:45.268Z,1.13
2022-09-05T15:03:00.150Z,1.00
2022-09-05T15:04:57.468Z,1.00
2022-09-05T15:08:18.264Z,0.90
2022-09-05T15:12:22.076Z,0.70
2022-09-05T15:15:16.241Z,0.90
2022-09-05T15:18:21.904Z,0.90
2022-09-05T15:21:33.639Z,1.17
2022-09-05T15:24:41.363Z,1.07
2022-09-05T15:27:50.753Z,0.97
2022-09-05T15:30:57.663Z,0.80
2022-09-05T15:34:12.622Z,0.97
2022-09-05T15:37:22.299Z,1.20
2022-09-05T15:40:30.627Z,0.97
2022-09-05T15:43:36.752Z,1.07
2022-09-05T15:46:59.876Z,0.87
2022-09-05T15:50:06.103Z,0.93
2022-09-05T15:53:33.016Z,0.93
2022-09-05T15:56:39.881Z,1.10
2022-09-05T15:59:53.567Z,0.90
2022-09-05T16:03:23.094Z,1.07
2022-09-05T16:10:35.221Z,1.10
2022-09-05T16:10:45.712Z,1.00
2022-09-05T16:13:52.664Z,0.93
2022-09-05T16:23:15.173Z,0.93
2022-09-05T16:23:25.130Z,1.10
2022-09-05T16:23:53.389Z,1.10
2022-09-05T16:27:05.812Z,1.07
2022-09-05T16:30:16.541Z,0.80
2022-09-05T16:33:23.635Z,0.87
2022-09-05T16:36:31.238Z,1.50
2022-09-05T16:39:37.031Z,1.40
2022-09-05T16:42:47.916Z,1.20
2022-09-05T16:45:53.531Z,2.13
2022-09-05T16:48:59.359Z,1.60
2022-09-05T16:52:08.230Z,2.00
2022-09-05T16:55:18.401Z,1.40
2022-09-05T16:58:38.181Z,0.90
2022-09-05T17:01:47.233Z,0.83
2022-09-05T17:05:04.303Z,1.30
2022-09-05T17:08:16.235Z,1.00
2022-09-05T17:12:00.002Z,0.90
2022-09-05T17:15:09.313Z,1.00
2022-09-05T17:18:22.073Z,1.30
2022-09-05T17:23:17.335Z,1.13
2022-09-05T17:29:16.639Z,1.33
2022-09-05T17:29:42.080Z,1.10
2022-09-05T17:31:57.825Z,1.33
2022-09-05T17:35:17.100Z,1.40
2022-09-05T17:38:38.896Z,1.07
2022-09-05T17:41:45.442Z,1.30
2022-09-05T17:44:56.591Z,1.10
2022-09-05T17:48:03.999Z,0.90
2022-09-05T17:51:09.889Z,1.10
2022-09-05T17:54:18.960Z,1.17
2022-09-05T17:57:34.212Z,1.10
2022-09-05T18:00:40.902Z,1.30
2022-09-05T18:03:47.149Z,1.03
2022-09-05T18:07:00.298Z,1.50
2022-09-05T18:10:15.395Z,1.37
2022-09-05T18:13:33.362Z,1.70
2022-09-05T18:17:35.307Z,2.43
2022-09-05T18:20:14.278Z,2.80
2022-09-05T18:23:39.571Z,2.90
2022-09-05T18:26:48.926Z,2.90
2022-09-05T18:30:06.088Z,3.10
2022-09-05T18:34:03.743Z,2.00
2022-09-05T18:36:41.761Z,2.10
2022-09-05T18:39:47.707Z,2.20
2022-09-05T18:42:54.049Z,2.30
2022-09-05T18:46:08.361Z,1.90
2022-09-05T18:50:21.632Z,1.70
2022-09-05T18:52:47.245Z,2.00
2022-09-05T18:56:14.015Z,1.80
2022-09-05T18:59:24.029Z,1.70
2022-09-05T19:02:51.478Z,1.37
2022-09-05T19:06:37.082Z,1.63
2022-09-05T19:09:27.592Z,1.50
2022-09-05T19:12:38.999Z,1.43
2022-09-05T19:15:53.089Z,1.50
2022-09-05T19:23:11.351Z,1.20
2022-09-05T19:26:13.951Z,1.10
2022-09-05T19:36:46.757Z,1.10
2022-09-05T19:37:02.954Z,1.20
2022-09-05T19:37:10.871Z,1.43
2022-09-05T19:43:44.869Z,1.20
2022-09-05T19:47:33.998Z,1.40
2022-09-05T19:47:45.337Z,1.40
2022-09-05T19:49:58.644Z,1.60
2022-09-05T19:53:06.467Z,1.10
2022-09-05T19:56:12.493Z,1.80
2022-09-05T19:59:21.301Z,2.03
2022-09-05T20:02:27.187Z,1.60
2022-09-05T20:05:35.249Z,1.60
2022-09-05T20:08:42.465Z,1.30
2022-09-05T20:11:58.096Z,1.30
2022-09-05T20:15:04.715Z,1.70
2022-09-05T20:18:26.638Z,1.90
2022-09-05T20:21:35.732Z,1.40
2022-09-05T20:24:41.925Z,1.43
2022-09-05T20:27:50.170Z,1.43
2022-09-05T20:30:56.185Z,1.53
2022-09-05T20:34:10.587Z,1.50
2022-09-05T20:43:14.457Z,1.40
2022-09-05T20:43:16.800Z,1.30
2022-09-05T20:44:33.940Z,1.43
2022-09-05T20:54:05.456Z,1.50
2022-09-05T20:54:22.370Z,1.40
2022-09-05T20:54:41.186Z,1.60
2022-09-05T20:57:48.676Z,1.50
2022-09-05T21:01:21.947Z,1.73
2022-09-05T21:04:37.881Z,2.00
2022-09-05T21:07:43.654Z,2.30
2022-09-05T21:10:55.731Z,2.23
2022-09-05T21:14:04.597Z,2.20
2022-09-05T21:17:15.630Z,1.87
2022-09-05T21:20:25.255Z,2.40
2022-09-05T21:23:31.811Z,1.97
2022-09-05T21:26:37.597Z,1.50
2022-09-05T21:29:44.082Z,1.93
2022-09-05T21:32:51.986Z,1.80
2022-09-05T21:35:58.780Z,1.90
2022-09-05T21:39:05.013Z,1.40
2022-09-05T21:42:51.761Z,1.50
2022-09-05T21:47:46.807Z,1.20
2022-09-05T21:49:07.451Z,1.50
2022-09-05T21:52:15.669Z,1.30
2022-09-05T21:59:20.005Z,1.50
2022-09-05T21:59:27.967Z,1.73
2022-09-05T22:02:26.730Z,1.80
2022-09-05T22:05:35.855Z,1.40
2022-09-05T22:08:41.289Z,1.67
2022-09-05T22:12:14.567Z,1.40
2022-09-05T22:15:32.471Z,1.30
2022-09-05T22:18:45.480Z,1.40
2022-09-05T22:21:52.361Z,1.37
2022-09-05T22:24:57.780Z,1.80
2022-09-05T22:28:08.746Z,1.40
2022-09-05T22:31:14.605Z,1.70
2022-09-05T22:34:20.960Z,1.47
2022-09-05T22:37:28.302Z,1.50
2022-09-05T22:40:33.829Z,1.57
2022-09-05T22:43:39.768Z,1.50
2022-09-05T22:46:45.760Z,1.97
2022-09-05T22:49:52.231Z,2.13
2022-09-05T22:53:14.899Z,1.40
2022-09-05T22:56:20.559Z,1.43
2022-09-05T22:59:26.377Z,1.40
2022-09-05T23:02:32.712Z,1.70
2022-09-05T23:05:39.397Z,1.57
2022-09-05T23:08:44.830Z,1.60
2022-09-05T23:11:50.619Z,1.80
2022-09-05T23:15:04.105Z,1.70
2022-09-05T23:18:10.080Z,1.47
2022-09-05T23:21:16.412Z,1.30
2022-09-05T23:24:22.676Z,1.73
2022-09-05T23:27:30.126Z,1.80
2022-09-05T23:30:48.603Z,1.67
2022-09-05T23:34:01.806Z,1.40
2022-09-05T23:37:08.326Z,1.57
2022-09-05T23:40:17.893Z,1.60
2022-09-05T23:43:27.452Z,1.47
2022-09-05T23:46:33.656Z,1.70
2022-09-05T23:49:40.190Z,1.70
2022-09-05T23:52:47.286Z,1.90
2022-09-05T23:56:15.867Z,1.53
2022-09-05T23:59:23.010Z,1.67
